createdAt,value
2018-06-24T00:00:37.179Z,60.74
2018-06-24T00:02:49.635Z,60.88
2018-06-24T00:05:02.100Z,60.77
2018-06-24T00:07:14.483Z,60.93
2018-06-24T00:09:26.953Z,60.98
2018-06-24T00:11:39.588Z,61.64
2018-06-24T00:13:51.928Z,61.57
2018-06-24T00:16:04.408Z,61.50
2018-06-24T00:18:16.742Z,61.57
2018-06-24T00:20:29.114Z,61.36
2018-06-24T00:22:41.578Z,61.42
2018-06-24T00:24:53.990Z,61.47
2018-06-24T00:27:06.486Z,62.02
2018-06-24T00:29:19.054Z,61.17
2018-06-24T00:31:31.430Z,61.08
2018-06-24T00:33:44.041Z,61.79
2018-06-24T00:35:56.398Z,61.51
2018-06-24T00:38:08.936Z,62.02
2018-06-24T00:40:21.388Z,62.02
2018-06-24T00:42:34.044Z,62.30
2018-06-24T00:44:46.518Z,62.18
2018-06-24T00:46:58.943Z,63.22
2018-06-24T00:49:11.466Z,62.47
2018-06-24T00:51:23.873Z,62.84
2018-06-24T00:53:36.478Z,63.06
2018-06-24T00:55:48.938Z,63.03
2018-06-24T00:58:01.416Z,63.71
2018-06-24T01:00:17.059Z,63.40
2018-06-24T01:02:29.465Z,63.58
2018-06-24T01:04:41.850Z,63.34
2018-06-24T01:06:54.227Z,64.12
2018-06-24T01:09:06.749Z,63.49
2018-06-24T01:11:19.282Z,64.07
2018-06-24T01:13:31.765Z,65.04
2018-06-24T01:15:44.153Z,65.26
2018-06-24T01:17:56.496Z,64.73
2018-06-24T01:20:09.458Z,64.45
2018-06-24T01:22:21.921Z,64.99
2018-06-24T01:24:34.294Z,64.50
2018-06-24T01:26:46.754Z,65.56
2018-06-24T01:28:59.190Z,65.31
2018-06-24T01:31:11.570Z,65.22
2018-06-24T01:33:23.958Z,65.10
2018-06-24T01:35:36.297Z,64.75
2018-06-24T01:37:48.673Z,64.73
2018-06-24T01:40:00.990Z,65.02
2018-06-24T01:42:13.637Z,64.35
2018-06-24T01:44:26.026Z,65.05
2018-06-24T01:46:38.385Z,65.01
2018-06-24T01:48:50.788Z,64.65
2018-06-24T01:51:03.241Z,64.33
2018-06-24T01:53:15.884Z,64.28
2018-06-24T01:55:28.429Z,65.14
2018-06-24T01:57:40.913Z,64.95
2018-06-24T01:59:53.251Z,64.36
2018-06-24T02:02:05.707Z,63.64
2018-06-24T02:04:18.145Z,64.38
2018-06-24T02:06:30.534Z,65.13
2018-06-24T02:08:42.998Z,64.65
2018-06-24T02:10:55.387Z,65.17
2018-06-24T02:13:07.751Z,65.03
2018-06-24T02:15:20.137Z,65.00
2018-06-24T02:17:32.501Z,64.23
2018-06-24T02:19:44.947Z,65.50
2018-06-24T02:21:57.298Z,64.69
2018-06-24T02:24:09.671Z,64.78
2018-06-24T02:26:22.158Z,64.93
2018-06-24T02:28:34.474Z,65.28
2018-06-24T02:30:46.990Z,65.36
2018-06-24T02:32:59.430Z,65.53
2018-06-24T02:35:11.876Z,65.47
2018-06-24T02:37:26.018Z,64.93
2018-06-24T02:39:38.421Z,65.15
2018-06-24T02:41:50.888Z,65.23
2018-06-24T02:44:03.302Z,66.00
2018-06-24T02:46:15.790Z,65.13
2018-06-24T02:48:28.148Z,65.69
2018-06-24T02:50:40.516Z,65.18
2018-06-24T02:52:52.868Z,65.39
2018-06-24T02:55:05.278Z,65.58
2018-06-24T02:57:17.647Z,65.90
2018-06-24T02:59:30.061Z,66.14
2018-06-24T03:01:42.430Z,66.45
2018-06-24T03:03:54.807Z,66.10
2018-06-24T03:06:07.345Z,66.15
2018-06-24T03:08:19.803Z,66.51
2018-06-24T03:10:32.138Z,66.66
2018-06-24T03:12:44.467Z,66.79
2018-06-24T03:14:56.834Z,66.17
2018-06-24T03:17:09.241Z,67.04
2018-06-24T03:19:21.622Z,67.07
2018-06-24T03:21:34.085Z,67.37
2018-06-24T03:23:46.454Z,67.31
2018-06-24T03:25:58.794Z,67.41
2018-06-24T03:28:11.130Z,66.96
2018-06-24T03:30:23.506Z,67.67
2018-06-24T03:32:35.877Z,67.08
2018-06-24T03:34:48.243Z,67.69
2018-06-24T03:37:00.645Z,67.19
2018-06-24T03:39:13.038Z,68.21
2018-06-24T03:41:25.399Z,67.60
2018-06-24T03:43:37.847Z,67.61
2018-06-24T03:45:50.306Z,68.00
2018-06-24T03:48:02.660Z,67.12
2018-06-24T03:50:15.286Z,67.94
2018-06-24T03:52:27.703Z,68.12
2018-06-24T03:54:40.254Z,67.95
2018-06-24T03:56:52.707Z,67.58
2018-06-24T03:59:05.127Z,67.46
2018-06-24T04:01:17.556Z,67.60
2018-06-24T04:03:29.900Z,66.89
2018-06-24T04:05:42.302Z,67.03
2018-06-24T04:07:54.739Z,68.05
2018-06-24T04:10:07.089Z,68.04
2018-06-24T04:12:19.543Z,68.04
2018-06-24T04:14:32.106Z,67.59
2018-06-24T04:16:44.458Z,67.64
2018-06-24T04:18:57.027Z,67.29
2018-06-24T04:21:10.690Z,67.62
2018-06-24T04:23:23.093Z,66.93
2018-06-24T04:25:35.522Z,67.40
2018-06-24T04:27:47.897Z,67.09
2018-06-24T04:30:00.316Z,66.46
2018-06-24T04:32:12.665Z,66.88
2018-06-24T04:34:25.117Z,67.03
2018-06-24T04:36:37.518Z,66.30
2018-06-24T04:38:50.199Z,66.34
2018-06-24T04:41:02.974Z,66.22
2018-06-24T04:43:15.334Z,66.29
2018-06-24T04:45:28.552Z,66.33
2018-06-24T04:47:40.935Z,66.27
2018-06-24T04:49:54.389Z,66.25
2018-06-24T04:52:06.782Z,66.12
2018-06-24T04:54:19.148Z,65.15
2018-06-24T04:56:31.554Z,65.72
2018-06-24T04:58:44.103Z,65.68
2018-06-24T05:00:56.495Z,64.52
2018-06-24T05:03:08.867Z,63.94
2018-06-24T05:05:21.371Z,63.76
2018-06-24T05:07:33.757Z,63.38
2018-06-24T05:09:46.155Z,63.56
2018-06-24T05:11:58.518Z,62.92
2018-06-24T05:14:11.001Z,63.93
2018-06-24T05:16:23.429Z,63.36
2018-06-24T05:18:36.089Z,63.50
2018-06-24T05:20:48.406Z,62.29
2018-06-24T05:23:00.769Z,62.80
2018-06-24T05:25:13.066Z,62.94
2018-06-24T05:27:25.569Z,62.21
2018-06-24T05:29:38.113Z,62.26
2018-06-24T05:31:50.576Z,61.33
2018-06-24T05:34:02.982Z,61.39
2018-06-24T05:36:15.341Z,61.63
2018-06-24T05:38:27.857Z,61.72
2018-06-24T05:40:40.295Z,60.76
2018-06-24T05:42:52.653Z,61.16
2018-06-24T05:45:05.073Z,60.50
2018-06-24T05:47:17.408Z,60.00
2018-06-24T05:49:29.798Z,59.26
2018-06-24T05:51:42.179Z,59.86
2018-06-24T05:53:54.582Z,58.55
2018-06-24T05:56:06.962Z,58.25
2018-06-24T05:58:19.546Z,58.54
2018-06-24T06:00:31.987Z,58.98
2018-06-24T06:02:44.461Z,58.43
2018-06-24T06:04:58.840Z,57.63
2018-06-24T06:07:11.231Z,57.00
2018-06-24T06:09:23.717Z,57.90
2018-06-24T06:11:36.176Z,58.13
2018-06-24T06:13:48.575Z,56.94
2018-06-24T06:16:01.120Z,56.48
2018-06-24T06:18:13.477Z,55.34
2018-06-24T06:20:25.897Z,57.69
2018-06-24T06:22:38.427Z,57.58
2018-06-24T06:24:50.796Z,56.71
2018-06-24T06:27:03.344Z,56.88
2018-06-24T06:29:15.675Z,56.27
2018-06-24T06:31:28.354Z,57.07
2018-06-24T06:33:45.409Z,57.25
2018-06-24T06:35:57.843Z,57.47
2018-06-24T06:38:10.274Z,55.90
2018-06-24T06:40:22.652Z,55.76
2018-06-24T06:42:35.074Z,56.14
2018-06-24T06:44:47.427Z,56.18
2018-06-24T06:46:59.942Z,55.27
2018-06-24T06:49:12.434Z,54.95
2018-06-24T06:51:24.817Z,52.96
2018-06-24T06:53:37.270Z,53.38
2018-06-24T06:55:49.714Z,53.26
2018-06-24T06:58:02.150Z,53.60
2018-06-24T07:00:14.655Z,54.25
2018-06-24T07:02:27.050Z,54.10
2018-06-24T07:04:39.616Z,54.10
2018-06-24T07:06:52.968Z,55.11
2018-06-24T07:09:07.403Z,54.98
2018-06-24T07:11:19.816Z,55.44
2018-06-24T07:13:32.306Z,54.52
2018-06-24T07:15:44.639Z,54.02
2018-06-24T07:17:57.005Z,53.75
2018-06-24T07:20:09.548Z,53.20
2018-06-24T07:22:24.673Z,52.12
2018-06-24T07:24:37.106Z,52.77
2018-06-24T07:26:54.449Z,52.70
2018-06-24T07:29:06.928Z,52.76
2018-06-24T07:31:19.327Z,51.35
2018-06-24T07:33:31.918Z,50.60
2018-06-24T07:35:44.470Z,50.01
2018-06-24T07:37:57.686Z,49.94
2018-06-24T07:40:10.158Z,50.22
2018-06-24T07:42:26.662Z,49.59
2018-06-24T07:44:39.078Z,47.94
2018-06-24T07:46:51.505Z,48.89
2018-06-24T07:49:03.866Z,48.06
2018-06-24T07:51:16.305Z,47.64
2018-06-24T07:53:28.621Z,47.35
2018-06-24T07:55:40.974Z,47.05
2018-06-24T07:57:54.240Z,48.99
2018-06-24T08:00:07.738Z,48.40
2018-06-24T08:02:24.063Z,46.67
2018-06-24T08:04:37.194Z,46.86
2018-06-24T08:06:49.663Z,45.69
2018-06-24T08:09:02.426Z,45.83
2018-06-24T08:11:14.775Z,46.86
2018-06-24T08:13:27.158Z,47.39
2018-06-24T08:15:39.434Z,47.34
2018-06-24T08:17:51.893Z,46.95
2018-06-24T08:20:10.499Z,46.13
2018-06-24T08:22:24.697Z,46.80
2018-06-24T08:24:37.975Z,44.08
2018-06-24T08:26:50.857Z,44.47
2018-06-24T08:29:03.294Z,44.37
2018-06-24T08:31:15.702Z,44.15
2018-06-24T08:33:28.094Z,43.95
2018-06-24T08:35:41.253Z,42.52
2018-06-24T08:37:53.553Z,43.10
2018-06-24T08:40:05.950Z,41.73
2018-06-24T08:42:20.243Z,42.59
2018-06-24T08:44:32.670Z,40.74
2018-06-24T08:46:45.057Z,41.69
2018-06-24T08:48:57.501Z,41.10
2018-06-24T08:51:09.869Z,41.59
2018-06-24T08:53:22.260Z,41.12
2018-06-24T08:55:34.678Z,41.60
2018-06-24T08:57:47.107Z,42.10
2018-06-24T08:59:59.594Z,43.42
2018-06-24T09:02:12.759Z,42.26
2018-06-24T09:04:25.220Z,42.89
2018-06-24T09:06:39.435Z,42.23
2018-06-24T09:08:52.646Z,40.96
2018-06-24T09:11:05.338Z,40.13
2018-06-24T09:13:17.766Z,39.71
2018-06-24T09:15:30.165Z,40.51
2018-06-24T09:17:42.609Z,39.89
2018-06-24T09:19:54.894Z,40.26
2018-06-24T09:22:07.449Z,38.14
2018-06-24T09:24:19.888Z,36.87
2018-06-24T09:26:32.278Z,37.23
2018-06-24T09:28:44.737Z,38.41
2018-06-24T09:30:57.153Z,38.19
2018-06-24T09:33:09.667Z,37.29
2018-06-24T09:35:23.875Z,38.18
2018-06-24T09:37:36.317Z,38.56
2018-06-24T09:39:48.824Z,39.65
2018-06-24T09:42:01.270Z,40.25
2018-06-24T09:44:13.703Z,39.00
2018-06-24T09:46:26.091Z,39.65
2018-06-24T09:48:38.493Z,38.86
2018-06-24T09:50:50.849Z,40.20
2018-06-24T09:53:06.136Z,41.89
2018-06-24T09:55:18.674Z,40.00
2018-06-24T09:57:31.149Z,41.67
2018-06-24T09:59:43.542Z,40.41
2018-06-24T10:01:55.986Z,42.09
2018-06-24T10:04:08.421Z,41.39
2018-06-24T10:06:20.916Z,42.05
2018-06-24T10:08:33.295Z,41.08
2018-06-24T10:10:45.682Z,42.14
2018-06-24T10:12:58.070Z,43.15
2018-06-24T10:15:10.475Z,43.18
2018-06-24T10:17:23.191Z,42.57
2018-06-24T10:19:35.554Z,41.36
2018-06-24T10:21:47.987Z,39.98
2018-06-24T10:24:00.451Z,40.00
2018-06-24T10:26:12.990Z,39.66
2018-06-24T10:28:25.374Z,40.15
2018-06-24T10:30:37.747Z,39.90
2018-06-24T10:32:50.252Z,38.86
2018-06-24T10:35:02.728Z,39.35
2018-06-24T10:37:17.942Z,39.81
2018-06-24T10:39:30.322Z,38.41
2018-06-24T10:41:42.773Z,40.37
2018-06-24T10:43:55.196Z,41.48
2018-06-24T10:46:07.544Z,40.95
2018-06-24T10:48:19.969Z,40.07
2018-06-24T10:50:32.370Z,41.16
2018-06-24T10:52:44.790Z,40.66
2018-06-24T10:54:57.381Z,39.48
2018-06-24T10:57:09.935Z,39.36
2018-06-24T10:59:22.426Z,39.93
2018-06-24T11:01:34.966Z,40.74
2018-06-24T11:03:47.810Z,39.99
2018-06-24T11:06:00.376Z,40.36
2018-06-24T11:08:12.830Z,41.88
2018-06-24T11:10:25.293Z,41.19
2018-06-24T11:12:37.930Z,42.04
2018-06-24T11:14:51.317Z,41.89
2018-06-24T11:17:03.773Z,42.17
2018-06-24T11:19:16.278Z,42.80
2018-06-24T11:21:29.064Z,41.25
2018-06-24T11:23:41.542Z,42.80
2018-06-24T11:25:54.456Z,43.08
2018-06-24T11:28:07.151Z,41.79
2018-06-24T11:30:21.583Z,42.60
2018-06-24T11:32:34.147Z,42.76
2018-06-24T11:34:48.577Z,43.19
2018-06-24T11:37:01.891Z,42.70
2018-06-24T11:39:23.196Z,43.09
2018-06-24T11:41:35.927Z,42.88
2018-06-24T11:43:48.394Z,43.42
2018-06-24T11:46:00.876Z,44.15
2018-06-24T11:48:13.275Z,42.77
2018-06-24T11:50:25.658Z,42.33
2018-06-24T11:52:38.027Z,41.30
2018-06-24T11:54:50.466Z,41.55
2018-06-24T11:57:03.008Z,41.30
2018-06-24T11:59:15.328Z,41.65
2018-06-24T12:01:27.815Z,41.34
2018-06-24T12:03:40.184Z,40.81
2018-06-24T12:05:52.599Z,40.39
2018-06-24T12:08:05.384Z,40.55
2018-06-24T12:10:17.813Z,41.51
2018-06-24T12:12:30.223Z,40.49
2018-06-24T12:14:42.603Z,40.61
2018-06-24T12:16:56.072Z,39.90
2018-06-24T12:19:08.703Z,40.40
2018-06-24T12:21:22.990Z,40.37
2018-06-24T12:23:35.685Z,41.40
2018-06-24T12:25:48.084Z,40.32
2018-06-24T12:28:00.578Z,40.96
2018-06-24T12:30:12.946Z,41.00
2018-06-24T12:32:25.397Z,40.14
2018-06-24T12:34:37.890Z,42.07
2018-06-24T12:36:50.290Z,40.52
2018-06-24T12:39:03.833Z,41.75
2018-06-24T12:41:16.453Z,40.75
2018-06-24T12:43:28.870Z,41.13
2018-06-24T12:45:41.284Z,41.99
2018-06-24T12:47:53.686Z,39.24
2018-06-24T12:50:06.178Z,40.61
2018-06-24T12:52:18.577Z,40.84
2018-06-24T12:54:30.947Z,40.75
2018-06-24T12:56:43.454Z,40.14
2018-06-24T12:58:56.163Z,40.52
2018-06-24T13:01:08.437Z,39.58
2018-06-24T13:03:20.961Z,39.42
2018-06-24T13:05:33.496Z,41.35
2018-06-24T13:07:46.011Z,41.58
2018-06-24T13:10:01.280Z,41.16
2018-06-24T13:12:13.745Z,41.67
2018-06-24T13:14:26.217Z,42.29
2018-06-24T13:16:38.785Z,41.57
2018-06-24T13:18:51.251Z,40.74
2018-06-24T13:21:03.637Z,40.91
2018-06-24T13:23:16.155Z,39.82
2018-06-24T13:25:28.614Z,40.33
2018-06-24T13:27:41.106Z,40.01
2018-06-24T13:29:53.468Z,39.05
2018-06-24T13:32:05.857Z,41.28
2018-06-24T13:34:18.253Z,40.31
2018-06-24T13:36:30.607Z,39.99
2018-06-24T13:38:43.050Z,40.30
2018-06-24T13:40:55.429Z,39.14
2018-06-24T13:43:09.701Z,39.00
2018-06-24T13:45:24.913Z,37.31
2018-06-24T13:47:37.348Z,39.16
2018-06-24T13:49:49.916Z,39.04
2018-06-24T13:52:02.330Z,38.16
2018-06-24T13:54:15.069Z,37.62
2018-06-24T13:56:27.860Z,37.62
2018-06-24T13:58:40.367Z,38.58
2018-06-24T14:00:52.914Z,38.02
2018-06-24T14:03:05.425Z,38.48
2018-06-24T14:05:18.058Z,38.44
2018-06-24T14:07:30.446Z,38.84
2018-06-24T14:09:42.856Z,40.50
2018-06-24T14:11:55.257Z,38.97
2018-06-24T14:14:08.288Z,40.53
2018-06-24T14:16:21.590Z,39.46
2018-06-24T14:18:34.090Z,38.56
2018-06-24T14:20:46.502Z,39.22
2018-06-24T14:22:58.901Z,39.51
2018-06-24T14:25:11.252Z,40.49
2018-06-24T14:27:23.654Z,39.96
2018-06-24T14:29:36.080Z,40.48
2018-06-24T14:31:48.546Z,41.18
2018-06-24T14:34:05.883Z,39.78
2018-06-24T14:36:18.235Z,41.05
2018-06-24T14:38:30.730Z,39.81
2018-06-24T14:40:43.145Z,42.53
2018-06-24T14:42:55.597Z,40.77
2018-06-24T14:45:08.089Z,40.87
2018-06-24T14:47:20.879Z,40.46
2018-06-24T14:49:33.347Z,39.62
2018-06-24T14:51:45.760Z,39.58
2018-06-24T14:53:58.273Z,40.04
2018-06-24T14:56:10.639Z,41.25
2018-06-24T14:58:23.208Z,40.25
2018-06-24T15:00:35.683Z,40.60
2018-06-24T15:02:48.517Z,40.86
2018-06-24T15:05:00.943Z,40.91
2018-06-24T15:07:13.551Z,40.84
2018-06-24T15:09:26.234Z,41.32
2018-06-24T15:11:38.916Z,39.91
2018-06-24T15:13:51.277Z,39.83
2018-06-24T15:16:03.874Z,41.27
2018-06-24T15:18:16.311Z,40.01
2018-06-24T15:20:28.674Z,40.06
2018-06-24T15:22:41.152Z,39.35
2018-06-24T15:24:55.303Z,39.66
2018-06-24T15:27:07.792Z,41.79
2018-06-24T15:29:20.254Z,40.89
2018-06-24T15:31:32.703Z,40.24
2018-06-24T15:33:57.398Z,40.87
2018-06-24T15:36:09.878Z,41.08
2018-06-24T15:38:22.576Z,40.15
2018-06-24T15:40:35.063Z,41.08
2018-06-24T15:42:47.498Z,39.69
2018-06-24T15:45:00.587Z,40.70
2018-06-24T15:47:14.424Z,39.66
2018-06-24T15:49:27.662Z,41.50
2018-06-24T15:51:40.283Z,40.22
2018-06-24T15:53:52.737Z,42.30
2018-06-24T15:56:05.302Z,42.04
2018-06-24T15:58:18.263Z,41.44
2018-06-24T16:00:31.484Z,42.25
2018-06-24T16:02:43.898Z,40.62
2018-06-24T16:04:56.337Z,42.41
2018-06-24T16:07:08.811Z,41.10
2018-06-24T16:09:21.308Z,41.37
2018-06-24T16:11:33.792Z,42.05
2018-06-24T16:13:46.250Z,42.30
2018-06-24T16:15:58.665Z,40.97
2018-06-24T16:18:11.090Z,41.19
2018-06-24T16:20:25.544Z,43.11
2018-06-24T16:22:37.876Z,42.18
2018-06-24T16:24:50.232Z,42.05
2018-06-24T16:27:02.641Z,42.55
2018-06-24T16:29:15.101Z,42.56
2018-06-24T16:31:27.458Z,42.07
2018-06-24T16:33:39.902Z,41.84
2018-06-24T16:35:52.347Z,41.71
2018-06-24T16:38:04.862Z,43.86
2018-06-24T16:40:17.295Z,42.33
2018-06-24T16:42:29.761Z,41.25
2018-06-24T16:44:42.158Z,42.07
2018-06-24T16:46:54.589Z,42.84
2018-06-24T16:49:07.047Z,43.21
2018-06-24T16:51:19.439Z,44.00
2018-06-24T16:53:31.971Z,42.96
2018-06-24T16:55:44.415Z,42.52
2018-06-24T16:57:56.877Z,42.80
2018-06-24T17:00:09.470Z,42.80
2018-06-24T17:02:21.903Z,43.57
2018-06-24T17:04:34.532Z,43.34
2018-06-24T17:06:47.418Z,43.90
2018-06-24T17:08:59.913Z,43.21
2018-06-24T17:11:12.363Z,43.09
2018-06-24T17:13:24.746Z,44.03
2018-06-24T17:15:37.320Z,42.96
2018-06-24T17:17:50.783Z,42.55
2018-06-24T17:20:03.319Z,42.55
2018-06-24T17:22:15.821Z,42.75
2018-06-24T17:24:28.374Z,43.78
2018-06-24T17:26:40.859Z,42.07
2018-06-24T17:28:53.231Z,43.12
2018-06-24T17:31:07.451Z,42.89
2018-06-24T17:33:19.868Z,44.10
2018-06-24T17:35:32.481Z,43.58
2018-06-24T17:37:44.945Z,43.85
2018-06-24T17:39:57.347Z,43.85
2018-06-24T17:42:09.830Z,44.26
2018-06-24T17:44:22.237Z,44.82
2018-06-24T17:46:34.686Z,44.92
2018-06-24T17:48:47.095Z,44.63
2018-06-24T17:50:59.562Z,43.99
2018-06-24T17:53:12.186Z,44.20
2018-06-24T17:55:24.624Z,44.83
2018-06-24T17:57:37.091Z,45.84
2018-06-24T17:59:49.463Z,45.51
2018-06-24T18:02:01.967Z,45.44
2018-06-24T18:04:14.403Z,45.43
2018-06-24T18:06:26.936Z,46.08
2018-06-24T18:08:39.402Z,45.56
2018-06-24T18:10:52.047Z,45.33
2018-06-24T18:13:04.549Z,45.79
2018-06-24T18:15:16.991Z,46.42
2018-06-24T18:17:29.354Z,45.31
2018-06-24T18:19:41.761Z,45.21
2018-06-24T18:21:54.159Z,45.49
2018-06-24T18:24:06.581Z,45.52
2018-06-24T18:26:19.151Z,45.89
2018-06-24T18:28:31.776Z,44.50
2018-06-24T18:30:44.255Z,44.64
2018-06-24T18:32:56.722Z,45.31
2018-06-24T18:35:09.171Z,44.38
2018-06-24T18:37:21.630Z,44.37
2018-06-24T18:39:34.061Z,44.95
2018-06-24T18:41:46.453Z,44.65
2018-06-24T18:43:58.847Z,44.62
2018-06-24T18:46:11.266Z,44.97
2018-06-24T18:48:23.745Z,45.46
2018-06-24T18:50:36.218Z,44.59
2018-06-24T18:52:48.586Z,45.74
2018-06-24T18:55:01.043Z,45.17
2018-06-24T18:57:13.435Z,45.79
2018-06-24T18:59:25.842Z,45.32
2018-06-24T19:01:38.410Z,45.31
2018-06-24T19:03:50.864Z,45.71
2018-06-24T19:06:03.405Z,45.22
2018-06-24T19:08:15.771Z,45.99
2018-06-24T19:10:28.241Z,46.00
2018-06-24T19:12:40.870Z,45.52
2018-06-24T19:14:53.383Z,46.58
2018-06-24T19:17:05.865Z,45.90
2018-06-24T19:19:18.309Z,46.91
2018-06-24T19:21:31.012Z,46.39
2018-06-24T19:23:43.487Z,46.21
2018-06-24T19:25:55.896Z,47.10
2018-06-24T19:28:08.229Z,46.79
2018-06-24T19:30:20.774Z,47.52
2018-06-24T19:32:33.174Z,47.45
2018-06-24T19:34:45.567Z,47.41
2018-06-24T19:36:58.005Z,47.06
2018-06-24T19:39:11.420Z,47.22
2018-06-24T19:41:23.826Z,48.35
2018-06-24T19:43:36.276Z,48.38
2018-06-24T19:45:48.776Z,48.71
2018-06-24T19:48:01.175Z,47.96
2018-06-24T19:50:13.566Z,47.33
2018-06-24T19:52:26.017Z,47.79
2018-06-24T19:54:38.451Z,47.56
2018-06-24T19:56:50.857Z,48.11
2018-06-24T19:59:03.288Z,48.29
2018-06-24T20:01:15.741Z,48.63
2018-06-24T20:03:28.222Z,48.53
2018-06-24T20:05:40.663Z,48.78
2018-06-24T20:07:53.047Z,48.08
2018-06-24T20:10:05.494Z,47.85
2018-06-24T20:12:18.010Z,48.76
2018-06-24T20:14:30.432Z,48.40
2018-06-24T20:16:42.866Z,48.34
2018-06-24T20:18:55.665Z,49.63
2018-06-24T20:21:08.184Z,49.10
2018-06-24T20:23:20.633Z,49.02
2018-06-24T20:25:33.023Z,48.89
2018-06-24T20:27:45.616Z,49.16
2018-06-24T20:29:58.022Z,49.01
2018-06-24T20:32:10.435Z,49.63
2018-06-24T20:34:22.826Z,49.93
2018-06-24T20:36:35.208Z,49.76
2018-06-24T20:38:47.746Z,49.60
2018-06-24T20:41:00.134Z,49.63
2018-06-24T20:43:12.550Z,49.94
2018-06-24T20:45:25.020Z,49.51
2018-06-24T20:47:37.407Z,49.85
2018-06-24T20:49:49.818Z,50.09
2018-06-24T20:52:02.297Z,49.45
2018-06-24T20:54:14.784Z,50.26
2018-06-24T20:56:27.306Z,50.05
2018-06-24T20:58:39.658Z,50.11
2018-06-24T21:00:52.130Z,49.89
2018-06-24T21:03:04.825Z,49.22
2018-06-24T21:05:17.230Z,50.05
2018-06-24T21:07:29.631Z,49.81
2018-06-24T21:09:41.967Z,50.58
2018-06-24T21:11:54.338Z,50.21
2018-06-24T21:14:06.750Z,50.39
2018-06-24T21:16:19.249Z,50.47
2018-06-24T21:18:31.758Z,50.37
2018-06-24T21:20:44.238Z,50.85
2018-06-24T21:22:56.635Z,50.83
2018-06-24T21:25:09.044Z,51.02
2018-06-24T21:27:21.486Z,51.44
2018-06-24T21:29:33.943Z,51.20
2018-06-24T21:31:46.489Z,51.86
2018-06-24T21:33:58.847Z,51.91
2018-06-24T21:36:11.483Z,51.46
2018-06-24T21:38:23.853Z,51.38
2018-06-24T21:40:36.533Z,50.73
2018-06-24T21:42:48.938Z,50.81
2018-06-24T21:45:01.403Z,51.46
2018-06-24T21:47:13.725Z,51.01
2018-06-24T21:49:26.194Z,50.92
2018-06-24T21:51:38.536Z,51.49
2018-06-24T21:53:50.918Z,51.41
2018-06-24T21:56:03.408Z,51.38
2018-06-24T21:58:15.846Z,51.96
2018-06-24T22:00:28.410Z,51.28
2018-06-24T22:02:40.831Z,51.11
2018-06-24T22:04:53.234Z,51.66
2018-06-24T22:07:05.614Z,51.09
2018-06-24T22:09:17.930Z,51.04
2018-06-24T22:11:30.491Z,51.10
2018-06-24T22:13:43.048Z,51.62
2018-06-24T22:15:56.322Z,50.79
2018-06-24T22:18:08.763Z,51.20
2018-06-24T22:20:21.158Z,51.10
2018-06-24T22:22:33.619Z,50.81
2018-06-24T22:24:45.986Z,51.28
2018-06-24T22:26:58.363Z,51.16
2018-06-24T22:29:10.753Z,49.78
2018-06-24T22:31:23.143Z,50.67
2018-06-24T22:33:35.502Z,49.74
2018-06-24T22:35:47.974Z,50.35
2018-06-24T22:38:00.386Z,50.28
2018-06-24T22:40:12.794Z,50.73
2018-06-24T22:42:25.254Z,50.50
2018-06-24T22:44:37.598Z,49.55
2018-06-24T22:46:50.045Z,50.82
2018-06-24T22:49:02.491Z,50.10
2018-06-24T22:51:14.855Z,49.90
2018-06-24T22:53:27.376Z,50.32
2018-06-24T22:55:39.849Z,50.14
2018-06-24T22:57:52.250Z,51.26
2018-06-24T23:00:16.211Z,50.22
2018-06-24T23:02:28.681Z,51.05
2018-06-24T23:04:41.047Z,50.52
2018-06-24T23:06:53.520Z,50.77
2018-06-24T23:09:06.974Z,51.22
2018-06-24T23:11:20.035Z,51.76
2018-06-24T23:13:32.426Z,51.39
2018-06-24T23:15:44.767Z,51.10
2018-06-24T23:17:57.246Z,50.91
2018-06-24T23:20:09.623Z,51.05
2018-06-24T23:22:22.169Z,52.09
2018-06-24T23:24:34.582Z,51.75
2018-06-24T23:26:46.886Z,50.79
2018-06-24T23:28:59.322Z,51.16
2018-06-24T23:31:11.737Z,50.99
2018-06-24T23:33:24.118Z,51.38
2018-06-24T23:35:36.533Z,51.05
2018-06-24T23:37:48.843Z,51.89
2018-06-24T23:40:01.354Z,51.33
2018-06-24T23:42:13.718Z,51.04
2018-06-24T23:44:26.220Z,51.68
2018-06-24T23:46:38.623Z,52.02
2018-06-24T23:48:51.159Z,51.95
2018-06-24T23:51:03.554Z,51.88
2018-06-24T23:53:16.110Z,51.23
2018-06-24T23:55:28.507Z,51.12
2018-06-24T23:57:40.842Z,51.86
2018-06-24T23:59:53.306Z,52.05
